QTR781 OTHH-KMIA
Flight info
| Callsign | QTR781 |
|---|---|
| Flight time | N/A |
| Altitude | 34000 |
| Route | TULUB2A/34L TULUB B457 NARMI J735 KFA H741 JBL L768 MODAD B544 ALE M861 NISAP UM861 BELSU UA17 BALAX/N0498F360 UA17 YAVRU UA4 ERKAL UL615 DIGBO UQ26 TUDBU Q26 ETUBA T226 NAVOD DCT PADGU DCT KEROP DCT SASAL DCT SUBEN T161 AKINI T159 PETIX Z744 COSJE T892 RIDSU Z114 ADENU L608 DENUT/N0485F380 L610 KOPUL Q63 ICTAM L179 SAWPE DCT UNFIT DCT LEDGO DCT UNLID DCT ELSOX/M085F380 DCT DINIM/M085F390 DCT 52N020W 52N030W 52N040W 51N050W DCT ALLRY/N0498F400 N476B TOPPS DCT BEEKN Q97 KALDA DCT BGBRD Q101 SKARP Y313 HOAGG BNFSH3 |
| Aircraft | A359/H-SDE2E3GHIJ3J4J5LM1ORWXY/LB1D1 |
Departure
| Time | 2026-05-04 14:14 |
|---|---|
| Airport | Hamad International Airport (OTHH) |
Arrival
| Time | N/A |
|---|---|
| Airport | Miami International Airport (KMIA) |
| Time | Latitude | Longitude | Altitude | Speed | Heading |
|---|---|---|---|---|---|
| 2026-05-04 13:56 | 25.26400 | 51.61136 | 28 ft | 0 kts | 72° |
| 2026-05-04 14:06 | 25.26395 | 51.61117 | 27 ft | 4 kts | 72° |
| 2026-05-04 14:06 | 25.26387 | 51.61089 | 27 ft | 4 kts | 72° |
| 2026-05-04 14:06 | 25.26380 | 51.61065 | 26 ft | 4 kts | 82° |
| 2026-05-04 14:07 | 25.26380 | 51.61041 | 26 ft | 4 kts | 115° |
| 2026-05-04 14:07 | 25.26393 | 51.61022 | 26 ft | 4 kts | 148° |
| 2026-05-04 14:07 | 25.26416 | 51.61009 | 28 ft | 4 kts | 160° |
| 2026-05-04 14:07 | 25.26438 | 51.61000 | 28 ft | 1 kts | 158° |
| 2026-05-04 14:11 | 25.26356 | 51.61036 | 28 ft | 12 kts | 158° |
| 2026-05-04 14:11 | 25.26259 | 51.61062 | 28 ft | 17 kts | 192° |
| 2026-05-04 14:12 | 25.26190 | 51.60944 | 28 ft | 22 kts | 247° |
| 2026-05-04 14:12 | 25.26148 | 51.60832 | 28 ft | 17 kts | 248° |
| 2026-05-04 14:12 | 25.25927 | 51.60790 | 28 ft | 24 kts | 159° |
| 2026-05-04 14:13 | 25.25791 | 51.60822 | 28 ft | 18 kts | 210° |
| 2026-05-04 14:13 | 25.25725 | 51.60679 | 28 ft | 25 kts | 249° |
| 2026-05-04 14:13 | 25.25705 | 51.60486 | 28 ft | 27 kts | 300° |
| 2026-05-04 14:13 | 25.25871 | 51.60392 | 30 ft | 41 kts | 339° |
| 2026-05-04 14:14 | 25.26323 | 51.60197 | 29 ft | 100 kts | 339° |
| 2026-05-04 14:14 | 25.28262 | 51.59338 | 163 ft | 185 kts | 339° |
| 2026-05-04 14:14 | 25.29386 | 51.58808 | 1007 ft | 172 kts | 338° |
| 2026-05-04 14:15 | 25.31750 | 51.57774 | 1505 ft | 192 kts | 339° |
| 2026-05-04 14:15 | 25.34389 | 51.56627 | 1931 ft | 211 kts | 339° |
| 2026-05-04 14:16 | 25.37312 | 51.55340 | 2259 ft | 241 kts | 340° |
| 2026-05-04 14:16 | 25.38893 | 51.54642 | 2507 ft | 251 kts | 340° |
| 2026-05-04 14:17 | 25.42163 | 51.53192 | 3471 ft | 254 kts | 340° |
| 2026-05-04 14:17 | 25.43805 | 51.52465 | 3991 ft | 255 kts | 339° |
| 2026-05-04 14:17 | 25.47103 | 51.51013 | 5005 ft | 256 kts | 340° |
| 2026-05-04 14:18 | 25.48858 | 51.50648 | 5439 ft | 259 kts | 0° |
| 2026-05-04 14:18 | 25.52413 | 51.51577 | 6318 ft | 266 kts | 14° |
| 2026-05-04 14:19 | 25.55906 | 51.52757 | 7115 ft | 271 kts | 13° |
| 2026-05-04 14:19 | 25.57726 | 51.53361 | 7541 ft | 274 kts | 13° |
| 2026-05-04 14:19 | 25.59566 | 51.53967 | 7986 ft | 276 kts | 13° |
| 2026-05-04 14:19 | 25.61395 | 51.54568 | 8420 ft | 279 kts | 13° |
| 2026-05-04 14:20 | 25.63267 | 51.55182 | 8874 ft | 282 kts | 13° |
| 2026-05-04 14:20 | 25.65178 | 51.55670 | 9297 ft | 282 kts | 1° |
| 2026-05-04 14:20 | 25.67107 | 51.55450 | 9737 ft | 279 kts | 342° |
| 2026-05-04 14:21 | 25.70873 | 51.54113 | 10346 ft | 295 kts | 339° |
| 2026-05-04 14:21 | 25.72865 | 51.53383 | 10522 ft | 307 kts | 340° |
| 2026-05-04 14:21 | 25.74938 | 51.52632 | 10702 ft | 319 kts | 340° |
| 2026-05-04 14:21 | 25.77091 | 51.51857 | 10883 ft | 331 kts | 340° |
| 2026-05-04 14:22 | 25.79317 | 51.51059 | 11050 ft | 342 kts | 340° |
| 2026-05-04 14:22 | 25.81617 | 51.50235 | 11217 ft | 352 kts | 340° |
| 2026-05-04 14:22 | 25.83917 | 51.49194 | 11348 ft | 360 kts | 328° |
| 2026-05-04 14:22 | 25.85814 | 51.47416 | 11499 ft | 366 kts | 310° |
| 2026-05-04 14:23 | 25.89022 | 51.42868 | 11885 ft | 380 kts | 307° |
| 2026-05-04 14:23 | 25.90635 | 51.40530 | 12186 ft | 383 kts | 307° |
| 2026-05-04 14:23 | 25.92267 | 51.38181 | 12516 ft | 385 kts | 307° |
| 2026-05-04 14:24 | 25.93917 | 51.35814 | 12857 ft | 387 kts | 307° |
| 2026-05-04 14:24 | 25.95571 | 51.33445 | 13194 ft | 389 kts | 307° |
| 2026-05-04 14:24 | 25.97185 | 51.31012 | 13495 ft | 392 kts | 302° |
| 2026-05-04 14:24 | 25.98534 | 51.28375 | 13778 ft | 394 kts | 297° |
| 2026-05-04 14:25 | 25.99800 | 51.25666 | 14093 ft | 395 kts | 296° |
| 2026-05-04 14:25 | 26.02336 | 51.20209 | 14696 ft | 399 kts | 296° |
| 2026-05-04 14:25 | 26.03617 | 51.17461 | 14992 ft | 401 kts | 296° |
| 2026-05-04 14:26 | 26.04905 | 51.14701 | 15295 ft | 403 kts | 296° |
| 2026-05-04 14:26 | 26.06200 | 51.11926 | 15590 ft | 405 kts | 296° |
| 2026-05-04 14:26 | 26.07496 | 51.09145 | 15895 ft | 407 kts | 296° |
| 2026-05-04 14:26 | 26.08756 | 51.06320 | 16194 ft | 408 kts | 294° |
| 2026-05-04 14:27 | 26.09967 | 51.03448 | 16485 ft | 410 kts | 294° |
| 2026-05-04 14:27 | 26.11143 | 51.00598 | 16761 ft | 412 kts | 293° |
| 2026-05-04 14:27 | 26.12341 | 50.97689 | 17059 ft | 414 kts | 293° |
| 2026-05-04 14:27 | 26.13549 | 50.94774 | 17351 ft | 416 kts | 293° |
| 2026-05-04 14:28 | 26.14774 | 50.91838 | 17639 ft | 418 kts | 294° |
| 2026-05-04 14:28 | 26.16008 | 50.88897 | 17917 ft | 420 kts | 294° |
| 2026-05-04 14:28 | 26.17251 | 50.85946 | 18182 ft | 422 kts | 294° |
| 2026-05-04 14:28 | 26.18500 | 50.82983 | 18438 ft | 423 kts | 294° |
| 2026-05-04 14:29 | 26.21010 | 50.77027 | 18978 ft | 425 kts | 294° |
| 2026-05-04 14:29 | 26.23518 | 50.71065 | 19504 ft | 428 kts | 293° |
| 2026-05-04 14:30 | 26.24769 | 50.68053 | 19762 ft | 429 kts | 291° |
| 2026-05-04 14:30 | 26.25722 | 50.64910 | 20023 ft | 429 kts | 282° |
| 2026-05-04 14:30 | 26.26852 | 50.58374 | 20580 ft | 431 kts | 278° |
| 2026-05-04 14:31 | 26.27287 | 50.55071 | 20857 ft | 432 kts | 277° |
| 2026-05-04 14:31 | 26.28098 | 50.48410 | 21419 ft | 435 kts | 277° |
| 2026-05-04 14:32 | 26.28926 | 50.41699 | 21998 ft | 438 kts | 277° |
| 2026-05-04 14:32 | 26.29352 | 50.38330 | 22255 ft | 440 kts | 277° |
| 2026-05-04 14:32 | 26.29813 | 50.34951 | 22528 ft | 442 kts | 280° |
| 2026-05-04 14:32 | 26.30598 | 50.31629 | 22798 ft | 445 kts | 287° |
| 2026-05-04 14:33 | 26.31627 | 50.28372 | 23074 ft | 447 kts | 289° |
| 2026-05-04 14:33 | 26.32744 | 50.25136 | 23336 ft | 449 kts | 290° |
| 2026-05-04 14:33 | 26.33910 | 50.21902 | 23568 ft | 450 kts | 290° |
| 2026-05-04 14:33 | 26.35097 | 50.18663 | 23824 ft | 451 kts | 290° |
| 2026-05-04 14:34 | 26.36287 | 50.15419 | 24074 ft | 452 kts | 290° |
| 2026-05-04 14:34 | 26.37474 | 50.12166 | 24330 ft | 453 kts | 290° |
| 2026-05-04 14:34 | 26.38641 | 50.08946 | 24602 ft | 454 kts | 290° |
| 2026-05-04 14:34 | 26.39822 | 50.05668 | 24864 ft | 455 kts | 290° |
| 2026-05-04 14:35 | 26.40999 | 50.02388 | 25146 ft | 456 kts | 290° |
| 2026-05-04 14:35 | 26.42179 | 49.99094 | 25459 ft | 457 kts | 289° |
| 2026-05-04 14:35 | 26.43363 | 49.95786 | 25755 ft | 458 kts | 289° |
| 2026-05-04 14:35 | 26.44546 | 49.92476 | 26053 ft | 460 kts | 289° |
| 2026-05-04 14:36 | 26.45731 | 49.89158 | 26355 ft | 461 kts | 289° |
| 2026-05-04 14:36 | 26.46918 | 49.85833 | 26647 ft | 462 kts | 289° |
| 2026-05-04 14:36 | 26.48266 | 49.82562 | 26925 ft | 466 kts | 295° |
| 2026-05-04 14:36 | 26.49998 | 49.79494 | 27198 ft | 471 kts | 303° |
| 2026-05-04 14:37 | 26.52164 | 49.76717 | 27467 ft | 477 kts | 312° |
| 2026-05-04 14:37 | 26.54741 | 49.74340 | 27719 ft | 484 kts | 320° |
| 2026-05-04 14:37 | 26.57489 | 49.72234 | 27972 ft | 487 kts | 322° |
| 2026-05-04 14:37 | 26.60347 | 49.70182 | 28207 ft | 489 kts | 323° |
| 2026-05-04 14:38 | 26.63249 | 49.68159 | 28459 ft | 491 kts | 323° |
| 2026-05-04 14:38 | 26.66153 | 49.66148 | 28739 ft | 491 kts | 323° |
| 2026-05-04 14:38 | 26.69052 | 49.64131 | 29126 ft | 490 kts | 323° |
| 2026-05-04 14:38 | 26.71003 | 49.62765 | 29352 ft | 488 kts | 322° |
| 2026-05-04 14:39 | 26.73840 | 49.60767 | 29747 ft | 486 kts | 322° |
| 2026-05-04 14:39 | 26.76697 | 49.58742 | 30047 ft | 485 kts | 322° |
| 2026-05-04 14:39 | 26.79543 | 49.56713 | 30295 ft | 485 kts | 322° |
| 2026-05-04 14:40 | 26.85214 | 49.52640 | 30805 ft | 483 kts | 321° |
| 2026-05-04 14:40 | 26.88045 | 49.50613 | 31069 ft | 483 kts | 321° |
| 2026-05-04 14:40 | 26.90881 | 49.48587 | 31303 ft | 482 kts | 321° |
| 2026-05-04 14:40 | 26.93699 | 49.46575 | 31545 ft | 482 kts | 321° |
| 2026-05-04 14:41 | 26.96530 | 49.44537 | 31772 ft | 480 kts | 320° |
| 2026-05-04 14:41 | 26.99167 | 49.42276 | 31986 ft | 474 kts | 312° |
| 2026-05-04 14:41 | 27.03381 | 49.36777 | 32415 ft | 460 kts | 297° |
| 2026-05-04 14:42 | 27.06631 | 49.30635 | 32899 ft | 456 kts | 294° |
| 2026-05-04 14:42 | 27.08177 | 49.27533 | 33105 ft | 455 kts | 294° |
| 2026-05-04 14:42 | 27.09696 | 49.24458 | 33312 ft | 455 kts | 294° |
| 2026-05-04 14:43 | 27.11227 | 49.21360 | 33515 ft | 454 kts | 294° |
| 2026-05-04 14:43 | 27.12766 | 49.18259 | 33727 ft | 454 kts | 294° |
| 2026-05-04 14:43 | 27.15876 | 49.12019 | 33766 ft | 460 kts | 294° |
| 2026-05-04 14:44 | 27.19014 | 49.05753 | 33767 ft | 460 kts | 294° |
| 2026-05-04 14:44 | 27.22156 | 48.99481 | 33773 ft | 460 kts | 294° |
| 2026-05-04 14:45 | 27.25271 | 48.93253 | 33772 ft | 460 kts | 294° |
| 2026-05-04 14:45 | 27.28395 | 48.86975 | 33775 ft | 459 kts | 294° |
| 2026-05-04 14:46 | 27.31508 | 48.80711 | 33775 ft | 459 kts | 294° |
| 2026-05-04 14:46 | 27.34632 | 48.74421 | 33777 ft | 459 kts | 294° |
| 2026-05-04 14:47 | 27.37744 | 48.68146 | 33777 ft | 459 kts | 294° |
| 2026-05-04 14:47 | 27.40835 | 48.61906 | 33779 ft | 459 kts | 294° |
| 2026-05-04 14:48 | 27.43939 | 48.55632 | 33783 ft | 458 kts | 294° |
| 2026-05-04 14:48 | 27.47035 | 48.49361 | 33782 ft | 458 kts | 294° |
| 2026-05-04 14:49 | 27.50136 | 48.43073 | 33778 ft | 458 kts | 294° |
| 2026-05-04 14:49 | 27.53212 | 48.36825 | 33783 ft | 459 kts | 294° |
| 2026-05-04 14:50 | 27.56306 | 48.30533 | 33789 ft | 459 kts | 294° |
| 2026-05-04 14:50 | 27.59398 | 48.24242 | 33787 ft | 458 kts | 293° |
| 2026-05-04 14:51 | 27.62488 | 48.17954 | 33784 ft | 458 kts | 293° |
| 2026-05-04 14:51 | 27.65573 | 48.11667 | 33786 ft | 458 kts | 293° |
| 2026-05-04 14:52 | 27.68656 | 48.05376 | 33796 ft | 457 kts | 293° |
| 2026-05-04 14:52 | 27.71726 | 47.99100 | 33787 ft | 456 kts | 293° |
| 2026-05-04 14:53 | 27.74749 | 47.92891 | 33792 ft | 454 kts | 293° |
| 2026-05-04 14:53 | 27.77797 | 47.86622 | 33791 ft | 453 kts | 292° |
| 2026-05-04 14:54 | 27.80824 | 47.80388 | 33800 ft | 452 kts | 292° |
| 2026-05-04 14:54 | 27.83790 | 47.74141 | 33796 ft | 448 kts | 289° |
| 2026-05-04 14:55 | 27.86035 | 47.67645 | 33797 ft | 442 kts | 285° |
| 2026-05-04 14:55 | 27.88078 | 47.61117 | 33799 ft | 440 kts | 284° |
| 2026-05-04 14:56 | 27.90085 | 47.54581 | 33799 ft | 439 kts | 284° |
| 2026-05-04 14:56 | 27.92089 | 47.48068 | 33797 ft | 438 kts | 284° |
| 2026-05-04 14:57 | 27.94095 | 47.41566 | 33797 ft | 437 kts | 284° |
| 2026-05-04 14:57 | 27.96097 | 47.35078 | 33800 ft | 436 kts | 284° |
| 2026-05-04 14:58 | 27.98079 | 47.28639 | 33802 ft | 436 kts | 284° |
| 2026-05-04 14:58 | 28.00069 | 47.22160 | 33799 ft | 436 kts | 284° |
| 2026-05-04 14:59 | 28.02057 | 47.15676 | 33804 ft | 436 kts | 284° |
| 2026-05-04 15:00 | 28.05030 | 47.05957 | 33809 ft | 435 kts | 284° |
| 2026-05-04 15:00 | 28.07004 | 46.99485 | 33811 ft | 435 kts | 284° |
| 2026-05-04 15:01 | 28.09962 | 46.89769 | 33808 ft | 435 kts | 283° |
| 2026-05-04 15:01 | 28.11975 | 46.83357 | 33809 ft | 435 kts | 285° |
| 2026-05-04 15:02 | 28.14145 | 46.76950 | 33808 ft | 435 kts | 285° |
| 2026-05-04 15:02 | 28.16312 | 46.70562 | 33812 ft | 434 kts | 285° |
| 2026-05-04 15:03 | 28.18456 | 46.64153 | 33813 ft | 434 kts | 285° |
| 2026-05-04 15:03 | 28.20582 | 46.57749 | 33807 ft | 434 kts | 284° |
| 2026-05-04 15:04 | 28.22701 | 46.51345 | 33816 ft | 434 kts | 284° |
| 2026-05-04 15:04 | 28.24818 | 46.44938 | 33819 ft | 433 kts | 284° |
| 2026-05-04 15:05 | 28.26930 | 46.38536 | 33808 ft | 434 kts | 284° |
| 2026-05-04 15:05 | 28.29046 | 46.32109 | 33807 ft | 434 kts | 284° |
| 2026-05-04 15:06 | 28.31158 | 46.25688 | 33803 ft | 435 kts | 284° |
| 2026-05-04 15:07 | 28.34316 | 46.16062 | 33797 ft | 436 kts | 284° |
| 2026-05-04 15:07 | 28.36440 | 46.09620 | 33801 ft | 437 kts | 285° |
| 2026-05-04 15:08 | 28.38792 | 46.03249 | 33802 ft | 438 kts | 286° |
| 2026-05-04 15:08 | 28.41224 | 45.96896 | 33805 ft | 437 kts | 286° |
| 2026-05-04 15:09 | 28.43620 | 45.90543 | 33814 ft | 437 kts | 286° |
| 2026-05-04 15:09 | 28.45979 | 45.84196 | 33817 ft | 436 kts | 285° |
| 2026-05-04 15:10 | 28.49498 | 45.74676 | 33830 ft | 435 kts | 285° |
| 2026-05-04 15:11 | 28.52989 | 45.65209 | 33827 ft | 434 kts | 285° |
| 2026-05-04 15:11 | 28.55325 | 45.58868 | 33830 ft | 433 kts | 285° |
| 2026-05-04 15:12 | 28.57649 | 45.52547 | 33833 ft | 433 kts | 285° |
| 2026-05-04 15:12 | 28.59955 | 45.46265 | 33830 ft | 432 kts | 285° |
| 2026-05-04 15:13 | 28.62266 | 45.39957 | 33834 ft | 431 kts | 285° |
| 2026-05-04 15:13 | 28.64568 | 45.33661 | 33834 ft | 430 kts | 285° |
| 2026-05-04 15:14 | 28.66864 | 45.27371 | 33831 ft | 430 kts | 285° |
| 2026-05-04 15:14 | 28.69153 | 45.21092 | 33828 ft | 429 kts | 285° |
| 2026-05-04 15:15 | 28.71436 | 45.14818 | 33833 ft | 429 kts | 285° |
| 2026-05-04 15:15 | 28.73718 | 45.08536 | 33832 ft | 429 kts | 285° |
| 2026-05-04 15:16 | 28.77136 | 44.99105 | 33823 ft | 429 kts | 285° |
| 2026-05-04 15:17 | 28.80539 | 44.89694 | 33825 ft | 430 kts | 285° |
| 2026-05-04 15:17 | 28.83952 | 44.80233 | 33827 ft | 430 kts | 285° |
| 2026-05-04 15:18 | 28.86483 | 44.74013 | 33830 ft | 438 kts | 293° |
| 2026-05-04 15:19 | 28.91645 | 44.65305 | 33830 ft | 443 kts | 297° |
| 2026-05-04 15:19 | 28.96999 | 44.56701 | 33831 ft | 443 kts | 297° |
| 2026-05-04 15:20 | 29.00551 | 44.50955 | 33828 ft | 443 kts | 297° |
| 2026-05-04 15:20 | 29.04093 | 44.45196 | 33829 ft | 443 kts | 297° |
| 2026-05-04 15:21 | 29.07635 | 44.39424 | 33833 ft | 443 kts | 297° |
| 2026-05-04 15:22 | 29.12925 | 44.30789 | 33834 ft | 444 kts | 297° |
| 2026-05-04 15:22 | 29.18248 | 44.22085 | 33836 ft | 445 kts | 297° |
| 2026-05-04 15:23 | 29.21800 | 44.16267 | 33837 ft | 446 kts | 297° |
| 2026-05-04 15:23 | 29.25357 | 44.10433 | 33839 ft | 447 kts | 297° |
| 2026-05-04 15:24 | 29.32463 | 43.98753 | 33839 ft | 449 kts | 297° |
| 2026-05-04 15:25 | 29.36027 | 43.92882 | 33841 ft | 449 kts | 297° |
| 2026-05-04 15:26 | 29.41382 | 43.84045 | 33843 ft | 450 kts | 297° |
| 2026-05-04 15:26 | 29.46136 | 43.76184 | 33840 ft | 450 kts | 297° |
| 2026-05-04 15:27 | 29.51491 | 43.67312 | 33841 ft | 451 kts | 296° |
| 2026-05-04 15:28 | 29.56843 | 43.58424 | 33831 ft | 451 kts | 296° |
| 2026-05-04 15:29 | 29.62199 | 43.49511 | 33826 ft | 452 kts | 296° |
| 2026-05-04 15:30 | 29.74064 | 43.28350 | 33840 ft | 451 kts | 295° |
| 2026-05-04 15:31 | 29.79166 | 43.19226 | 33848 ft | 452 kts | 295° |
| 2026-05-04 15:32 | 29.87668 | 43.03983 | 33851 ft | 452 kts | 295° |
| 2026-05-04 15:34 | 29.96160 | 42.88692 | 33850 ft | 453 kts | 295° |
| 2026-05-04 15:34 | 30.01233 | 42.79532 | 33858 ft | 454 kts | 295° |
| 2026-05-04 15:35 | 30.06345 | 42.70283 | 33857 ft | 454 kts | 295° |
| 2026-05-04 15:36 | 30.11412 | 42.61094 | 33857 ft | 454 kts | 295° |
| 2026-05-04 15:36 | 30.14807 | 42.54922 | 33858 ft | 454 kts | 295° |
| 2026-05-04 15:37 | 30.18194 | 42.48757 | 33866 ft | 454 kts | 295° |
| 2026-05-04 15:37 | 30.21580 | 42.42583 | 33869 ft | 455 kts | 295° |
| 2026-05-04 15:38 | 30.24947 | 42.36435 | 33870 ft | 455 kts | 295° |
| 2026-05-04 15:38 | 30.28334 | 42.30239 | 33873 ft | 455 kts | 295° |
| 2026-05-04 15:39 | 30.31720 | 42.24038 | 33864 ft | 455 kts | 295° |
| 2026-05-04 15:40 | 30.36792 | 42.14729 | 33878 ft | 456 kts | 294° |
| 2026-05-04 15:40 | 30.40147 | 42.08561 | 33883 ft | 456 kts | 294° |
| 2026-05-04 15:41 | 30.43525 | 42.02341 | 33886 ft | 456 kts | 294° |
| 2026-05-04 15:41 | 30.46904 | 41.96110 | 33879 ft | 455 kts | 294° |
| 2026-05-04 15:42 | 30.50275 | 41.89882 | 33883 ft | 455 kts | 294° |
| 2026-05-04 15:42 | 30.53639 | 41.83657 | 33884 ft | 455 kts | 294° |
| 2026-05-04 15:43 | 30.56998 | 41.77433 | 33897 ft | 454 kts | 294° |
| 2026-05-04 15:43 | 30.60314 | 41.71280 | 33896 ft | 453 kts | 294° |
| 2026-05-04 15:44 | 30.63657 | 41.65067 | 33896 ft | 452 kts | 294° |
| 2026-05-04 15:44 | 30.66978 | 41.58882 | 33896 ft | 451 kts | 294° |
| 2026-05-04 15:45 | 30.70293 | 41.52701 | 33900 ft | 450 kts | 294° |
| 2026-05-04 15:45 | 30.73596 | 41.46532 | 33904 ft | 448 kts | 294° |
| 2026-05-04 15:46 | 30.76887 | 41.40377 | 33897 ft | 447 kts | 293° |
| 2026-05-04 15:46 | 30.80145 | 41.34272 | 33890 ft | 446 kts | 293° |
| 2026-05-04 15:47 | 30.83409 | 41.28145 | 33891 ft | 445 kts | 293° |
| 2026-05-04 15:47 | 30.86667 | 41.22020 | 33883 ft | 445 kts | 293° |
| 2026-05-04 15:48 | 30.89925 | 41.15888 | 33873 ft | 444 kts | 293° |
| 2026-05-04 15:48 | 30.94503 | 41.06592 | 33884 ft | 438 kts | 289° |
| 2026-05-04 15:49 | 30.97295 | 41.00326 | 33888 ft | 438 kts | 289° |
| 2026-05-04 15:49 | 31.00134 | 40.94039 | 33900 ft | 437 kts | 290° |
| 2026-05-04 15:50 | 31.03000 | 40.87786 | 33909 ft | 437 kts | 290° |
| 2026-05-04 15:50 | 31.05881 | 40.81521 | 33918 ft | 437 kts | 290° |
| 2026-05-04 15:51 | 31.08729 | 40.75319 | 33934 ft | 436 kts | 290° |
| 2026-05-04 15:51 | 31.11589 | 40.69076 | 33937 ft | 436 kts | 290° |
| 2026-05-04 15:52 | 31.14442 | 40.62837 | 33939 ft | 435 kts | 290° |
| 2026-05-04 15:52 | 31.17298 | 40.56580 | 33940 ft | 435 kts | 290° |
| 2026-05-04 15:53 | 31.20128 | 40.50368 | 33939 ft | 436 kts | 290° |
| 2026-05-04 15:53 | 31.22971 | 40.44119 | 33948 ft | 436 kts | 290° |
| 2026-05-04 15:54 | 31.25808 | 40.37876 | 33951 ft | 436 kts | 290° |
| 2026-05-04 15:54 | 31.28659 | 40.31587 | 33952 ft | 436 kts | 290° |
| 2026-05-04 15:55 | 31.31503 | 40.25303 | 33959 ft | 437 kts | 290° |
| 2026-05-04 15:55 | 31.34343 | 40.19018 | 33959 ft | 437 kts | 289° |
| 2026-05-04 15:56 | 31.37167 | 40.12757 | 33958 ft | 437 kts | 289° |
| 2026-05-04 15:56 | 31.40003 | 40.06462 | 33957 ft | 437 kts | 289° |
| 2026-05-04 15:57 | 31.42845 | 40.00140 | 33962 ft | 438 kts | 289° |
| 2026-05-04 15:57 | 31.45678 | 39.93829 | 33962 ft | 438 kts | 289° |
| 2026-05-04 15:58 | 31.48493 | 39.87547 | 33961 ft | 438 kts | 289° |
| 2026-05-04 15:58 | 31.51338 | 39.81189 | 33961 ft | 438 kts | 289° |
| 2026-05-04 15:59 | 31.54145 | 39.74903 | 33968 ft | 438 kts | 289° |
| 2026-05-04 15:59 | 31.56966 | 39.68577 | 33968 ft | 438 kts | 289° |
| 2026-05-04 16:00 | 31.59790 | 39.62231 | 33968 ft | 438 kts | 289° |
| 2026-05-04 16:00 | 31.62607 | 39.55889 | 33968 ft | 438 kts | 289° |
| 2026-05-04 16:01 | 31.65423 | 39.49540 | 33970 ft | 438 kts | 289° |
| 2026-05-04 16:01 | 31.68217 | 39.43229 | 33972 ft | 438 kts | 289° |
| 2026-05-04 16:02 | 31.71025 | 39.36878 | 33973 ft | 438 kts | 289° |
| 2026-05-04 16:03 | 31.75227 | 39.27354 | 33971 ft | 436 kts | 289° |
| 2026-05-04 16:03 | 31.78186 | 39.21096 | 33971 ft | 443 kts | 295° |
| 2026-05-04 16:04 | 31.82437 | 39.15650 | 33978 ft | 465 kts | 311° |
| 2026-05-04 16:04 | 31.88101 | 39.11624 | 33969 ft | 482 kts | 321° |
| 2026-05-04 16:04 | 31.91046 | 39.09842 | 33971 ft | 484 kts | 322° |
| 2026-05-04 16:05 | 31.97101 | 39.06295 | 33970 ft | 485 kts | 323° |
| 2026-05-04 16:06 | 32.06173 | 39.00989 | 33965 ft | 485 kts | 322° |
| 2026-05-04 16:07 | 32.18263 | 38.93864 | 33952 ft | 485 kts | 322° |
| 2026-05-04 16:08 | 32.30310 | 38.86733 | 33955 ft | 485 kts | 322° |
| 2026-05-04 16:09 | 32.45376 | 38.77786 | 33954 ft | 485 kts | 322° |
| 2026-05-04 16:10 | 32.57559 | 38.70773 | 33955 ft | 497 kts | 329° |
| 2026-05-04 16:11 | 32.68176 | 38.68858 | 33943 ft | 528 kts | 346° |
| 2026-05-04 16:11 | 32.71851 | 38.68682 | 33945 ft | 530 kts | 347° |
| 2026-05-04 16:12 | 32.93992 | 38.67810 | 33934 ft | 530 kts | 347° |
| 2026-05-04 16:13 | 33.08699 | 38.67127 | 33936 ft | 530 kts | 347° |
| 2026-05-04 16:14 | 33.22224 | 38.66478 | 33938 ft | 531 kts | 347° |
| 2026-05-04 16:16 | 33.40727 | 38.65662 | 33929 ft | 533 kts | 348° |
| 2026-05-04 16:16 | 33.51413 | 38.63719 | 33932 ft | 501 kts | 328° |
| 2026-05-04 16:17 | 33.57859 | 38.60656 | 33927 ft | 497 kts | 325° |
| 2026-05-04 16:18 | 33.70572 | 38.54123 | 33917 ft | 498 kts | 325° |
| 2026-05-04 16:19 | 33.86554 | 38.45976 | 33914 ft | 501 kts | 325° |
| 2026-05-04 16:20 | 34.02607 | 38.37779 | 33897 ft | 503 kts | 325° |
| 2026-05-04 16:22 | 34.18723 | 38.29515 | 33893 ft | 502 kts | 325° |
| 2026-05-04 16:23 | 34.37739 | 38.19728 | 33892 ft | 491 kts | 325° |